createdAt,value
2024-03-05T00:01:27.051Z,23.10
2024-03-05T00:04:02.537Z,23.48
2024-03-05T00:06:30.355Z,23.42
2024-03-05T00:08:57.130Z,18.02
2024-03-05T00:11:24.541Z,20.00
2024-03-05T00:13:51.450Z,17.98
2024-03-05T00:16:21.364Z,19.50
2024-03-05T00:18:48.388Z,22.42
2024-03-05T00:21:18.110Z,21.15
2024-03-05T00:26:21.367Z,18.25
2024-03-05T00:28:48.348Z,17.63
2024-03-05T00:31:15.200Z,17.65
2024-03-05T00:33:45.052Z,17.00
2024-03-05T00:36:11.868Z,17.38
2024-03-05T00:38:38.605Z,18.45
2024-03-05T00:41:05.370Z,18.10
2024-03-05T00:46:07.448Z,15.38
2024-03-05T00:48:35.447Z,16.90
2024-03-05T00:51:14.566Z,17.48
2024-03-05T00:53:41.457Z,16.25
2024-03-05T00:56:09.499Z,16.30
2024-03-05T00:58:36.352Z,13.10
2024-03-05T01:01:12.747Z,13.98
2024-03-05T01:03:39.558Z,12.93
2024-03-05T01:06:09.421Z,12.20
2024-03-05T01:08:36.129Z,13.95
2024-03-05T01:13:38.383Z,11.88
2024-03-05T01:18:46.984Z,11.63
2024-03-05T01:21:13.744Z,12.20
2024-03-05T01:23:41.409Z,12.02
2024-03-05T01:26:18.455Z,13.55
2024-03-05T01:28:45.268Z,11.55
2024-03-05T01:31:12.125Z,11.10
2024-03-05T01:33:38.938Z,11.40
2024-03-05T01:36:06.013Z,10.52
2024-03-05T01:41:14.414Z,10.20
2024-03-05T01:43:41.499Z,10.52
2024-03-05T01:46:08.519Z,9.98
2024-03-05T01:48:35.318Z,11.52
2024-03-05T01:51:04.362Z,11.98
2024-03-05T01:53:37.028Z,10.90
2024-03-05T01:56:04.062Z,9.57
2024-03-05T01:58:31.013Z,11.55
2024-03-05T02:00:57.905Z,11.20
2024-03-05T02:03:27.897Z,12.73
2024-03-05T02:06:00.839Z,10.15
2024-03-05T02:08:28.666Z,11.57
2024-03-05T02:10:56.147Z,9.48
2024-03-05T02:13:23.064Z,10.38
2024-03-05T02:15:51.124Z,9.63
2024-03-05T02:18:17.913Z,12.15
2024-03-05T02:20:44.654Z,11.73
2024-03-05T02:23:11.485Z,11.35
2024-03-05T02:25:48.531Z,11.45
2024-03-05T02:28:15.285Z,11.97
2024-03-05T02:30:42.518Z,11.32
2024-03-05T02:35:45.584Z,9.50
2024-03-05T02:38:12.338Z,9.30
2024-03-05T02:40:42.591Z,8.65
2024-03-05T02:43:09.412Z,8.68
2024-03-05T02:45:46.016Z,9.20
2024-03-05T02:48:12.787Z,11.38
2024-03-05T02:50:39.566Z,10.63
2024-03-05T02:53:07.509Z,11.25
2024-03-05T02:55:34.375Z,11.75
2024-03-05T02:58:07.475Z,9.65
2024-03-05T03:00:35.124Z,9.05
2024-03-05T03:05:43.521Z,9.70
2024-03-05T03:08:10.555Z,9.70
2024-03-05T03:10:39.504Z,9.52
2024-03-05T03:13:06.294Z,8.77
2024-03-05T03:15:33.073Z,8.30
2024-03-05T03:18:11.962Z,8.27
2024-03-05T03:20:38.730Z,10.05
2024-03-05T03:23:05.464Z,9.38
2024-03-05T03:28:07.654Z,7.20
2024-03-05T03:30:40.542Z,9.73
2024-03-05T03:33:10.683Z,8.65
2024-03-05T03:35:38.554Z,8.30
2024-03-05T03:40:44.571Z,7.78
2024-03-05T03:43:11.341Z,7.97
2024-03-05T03:45:41.553Z,7.03
2024-03-05T03:48:08.695Z,6.07
2024-03-05T03:50:35.448Z,6.18
2024-03-05T03:53:02.245Z,6.25
2024-03-05T03:55:29.200Z,6.00
2024-03-05T03:58:02.557Z,6.80
2024-03-05T04:00:29.311Z,6.32
2024-03-05T04:02:56.172Z,9.23
2024-03-05T04:05:23.072Z,6.65
2024-03-05T04:07:51.928Z,6.65
2024-03-05T04:10:33.857Z,7.35
2024-03-05T04:13:02.553Z,6.32
2024-03-05T04:15:32.552Z,6.00
2024-03-05T04:18:02.933Z,7.00
2024-03-05T04:20:30.965Z,7.25
2024-03-05T04:22:57.928Z,7.15
2024-03-05T04:25:25.045Z,6.53
2024-03-05T04:27:51.957Z,5.45
2024-03-05T04:30:18.718Z,8.65
2024-03-05T04:32:58.795Z,6.43
2024-03-05T04:35:35.414Z,7.80
2024-03-05T04:43:12.865Z,6.70
2024-03-05T04:45:39.883Z,6.65
2024-03-05T04:48:16.001Z,6.68
2024-03-05T04:50:54.049Z,5.32
2024-03-05T04:53:29.204Z,6.00
2024-03-05T04:55:56.085Z,5.60
2024-03-05T04:58:22.965Z,6.00
2024-03-05T05:03:25.680Z,5.38
2024-03-05T05:05:52.519Z,5.60
2024-03-05T05:08:19.317Z,4.60
2024-03-05T05:10:48.092Z,4.88
2024-03-05T05:13:15.259Z,6.20
2024-03-05T05:15:42.144Z,6.25
2024-03-05T05:18:11.206Z,6.25
2024-03-05T05:20:38.349Z,5.35
2024-03-05T05:23:08.365Z,6.40
2024-03-05T05:25:35.688Z,3.95
2024-03-05T05:28:08.350Z,5.45
2024-03-05T05:30:37.632Z,5.90
2024-03-05T05:33:23.748Z,6.15
2024-03-05T05:36:00.693Z,5.95
2024-03-05T05:38:27.426Z,4.18
2024-03-05T05:43:29.571Z,5.30
2024-03-05T05:45:57.969Z,4.88
2024-03-05T05:48:29.094Z,5.22
2024-03-05T05:50:57.028Z,5.68
2024-03-05T05:53:23.854Z,4.55
2024-03-05T05:55:58.782Z,5.63
2024-03-05T05:58:25.813Z,4.25
2024-03-05T06:00:52.606Z,4.93
2024-03-05T06:03:21.659Z,4.45
2024-03-05T06:05:48.417Z,4.07
2024-03-05T06:08:15.152Z,4.30
2024-03-05T06:10:50.888Z,5.10
2024-03-05T06:13:17.771Z,2.78
2024-03-05T06:15:44.620Z,3.92
2024-03-05T06:20:50.673Z,3.30
2024-03-05T06:23:17.450Z,4.00
2024-03-05T06:25:45.759Z,3.25
2024-03-05T06:28:13.962Z,3.33
2024-03-05T06:30:40.823Z,3.03
2024-03-05T06:33:10.582Z,4.50
2024-03-05T06:35:37.477Z,3.63
2024-03-05T06:38:04.379Z,4.25
2024-03-05T06:40:34.700Z,3.78
2024-03-05T06:43:01.578Z,3.28
2024-03-05T06:45:29.735Z,3.08
2024-03-05T06:53:06.856Z,2.80
2024-03-05T06:58:16.137Z,2.78
2024-03-05T07:00:44.879Z,2.10
2024-03-05T07:03:11.849Z,2.30
2024-03-05T07:05:38.610Z,2.17
2024-03-05T07:08:05.828Z,2.42
2024-03-05T07:10:39.532Z,2.30
2024-03-05T07:13:06.390Z,1.90
2024-03-05T07:15:33.195Z,2.30
2024-03-05T07:18:00.038Z,2.20
2024-03-05T07:20:26.893Z,2.30
2024-03-05T07:23:00.757Z,2.88
2024-03-05T07:25:27.608Z,2.25
2024-03-05T07:27:54.420Z,1.58
2024-03-05T07:30:26.064Z,2.00
2024-03-05T07:32:52.908Z,2.10
2024-03-05T07:35:22.698Z,1.88
2024-03-05T07:37:49.530Z,1.73
2024-03-05T07:40:21.799Z,1.92
2024-03-05T07:42:53.655Z,2.03
2024-03-05T07:45:21.706Z,1.40
2024-03-05T07:47:57.055Z,2.17
2024-03-05T07:50:24.529Z,1.63
2024-03-05T07:52:52.112Z,2.10
2024-03-05T07:55:25.769Z,1.83
2024-03-05T07:57:56.353Z,1.55
2024-03-05T08:00:23.324Z,1.73
2024-03-05T08:02:53.904Z,1.48
2024-03-05T08:05:27.081Z,1.50
2024-03-05T08:07:55.800Z,1.88
2024-03-05T08:10:26.203Z,1.00
2024-03-05T08:12:59.086Z,2.00
2024-03-05T08:15:26.285Z,1.75
2024-03-05T08:17:54.045Z,1.98
2024-03-05T08:20:23.341Z,1.75
2024-03-05T08:22:50.806Z,1.27
2024-03-05T08:25:18.973Z,2.33
2024-03-05T08:28:01.349Z,1.75
2024-03-05T08:30:29.760Z,1.92
2024-03-05T08:32:57.130Z,1.63
2024-03-05T08:35:25.352Z,1.60
2024-03-05T08:37:56.815Z,1.42
2024-03-05T08:40:34.342Z,1.63
2024-03-05T08:43:01.526Z,1.48
2024-03-05T08:45:29.789Z,1.60
2024-03-05T08:47:56.869Z,1.23
2024-03-05T08:50:24.889Z,1.48
2024-03-05T08:53:02.958Z,1.05
2024-03-05T08:55:29.915Z,1.30
2024-03-05T08:58:03.686Z,1.85
2024-03-05T09:00:37.910Z,1.50
2024-03-05T09:03:09.968Z,1.35
2024-03-05T09:05:37.276Z,1.52
2024-03-05T09:08:04.992Z,0.98
2024-03-05T09:10:31.893Z,1.38
2024-03-05T09:12:59.001Z,1.20
2024-03-05T09:15:25.898Z,1.48
2024-03-05T09:17:52.802Z,1.60
2024-03-05T09:20:19.781Z,1.33
2024-03-05T09:22:47.986Z,1.25
2024-03-05T09:25:15.990Z,1.88
2024-03-05T09:27:50.863Z,1.52
2024-03-05T09:30:19.721Z,1.40
2024-03-05T09:32:49.447Z,1.13
2024-03-05T09:35:16.284Z,0.90
2024-03-05T09:37:50.902Z,1.40
2024-03-05T09:40:17.963Z,1.08
2024-03-05T09:42:46.860Z,1.38
2024-03-05T09:45:19.317Z,1.40
2024-03-05T09:47:51.875Z,1.52
2024-03-05T09:50:19.531Z,1.27
2024-03-05T09:52:54.897Z,1.92
2024-03-05T09:55:30.411Z,1.50
2024-03-05T09:57:58.842Z,1.60
2024-03-05T10:00:26.277Z,1.20
2024-03-05T10:02:56.242Z,2.58
2024-03-05T10:05:25.798Z,2.13
2024-03-05T10:07:52.624Z,1.33
2024-03-05T10:10:20.374Z,1.70
2024-03-05T10:12:50.528Z,1.85
2024-03-05T10:15:22.927Z,1.98
2024-03-05T10:17:52.395Z,1.58
2024-03-05T10:20:32.433Z,1.75
2024-03-05T10:23:04.888Z,1.63
2024-03-05T10:25:33.371Z,1.52
2024-03-05T10:28:00.440Z,1.50
2024-03-05T10:30:30.229Z,1.17
2024-03-05T10:33:06.887Z,1.42
2024-03-05T10:35:34.869Z,1.48
2024-03-05T10:38:14.574Z,1.77
2024-03-05T10:40:42.315Z,2.47
2024-03-05T10:43:10.742Z,1.02
2024-03-05T10:45:48.984Z,1.42
2024-03-05T10:48:16.901Z,1.63
2024-03-05T10:50:46.403Z,1.35
2024-03-05T10:55:53.271Z,2.42
2024-03-05T10:58:20.144Z,1.65
2024-03-05T11:00:47.078Z,1.70
2024-03-05T11:03:14.449Z,1.88
2024-03-05T11:05:45.963Z,1.50
2024-03-05T11:08:13.161Z,1.60
2024-03-05T11:10:47.723Z,2.42
2024-03-05T11:13:15.872Z,1.75
2024-03-05T11:15:55.869Z,1.50
2024-03-05T11:18:36.624Z,1.45
2024-03-05T11:21:19.245Z,1.42
2024-03-05T11:23:52.226Z,1.48
2024-03-05T11:26:20.090Z,1.80
2024-03-05T11:28:48.845Z,1.50
2024-03-05T11:31:28.963Z,1.10
2024-03-05T11:34:14.776Z,1.45
2024-03-05T11:39:17.821Z,1.58
2024-03-05T11:41:49.086Z,1.60
2024-03-05T11:44:35.819Z,2.20
2024-03-05T11:47:03.058Z,1.80
2024-03-05T11:49:30.076Z,1.50
2024-03-05T11:51:57.120Z,1.90
2024-03-05T11:54:32.031Z,2.10
2024-03-05T11:57:00.629Z,1.55
2024-03-05T11:59:39.959Z,1.75
2024-03-05T12:02:11.745Z,1.50
2024-03-05T12:04:42.377Z,1.40
2024-03-05T12:07:14.292Z,1.48
2024-03-05T12:09:41.807Z,1.80
2024-03-05T12:12:10.757Z,1.30
2024-03-05T12:14:56.664Z,1.05
2024-03-05T12:17:26.200Z,1.30
2024-03-05T12:20:08.600Z,1.00
2024-03-05T12:22:38.787Z,1.05
2024-03-05T12:25:12.022Z,1.30
2024-03-05T12:27:38.919Z,1.40
2024-03-05T12:30:07.236Z,0.98
2024-03-05T12:32:38.262Z,1.50
2024-03-05T12:35:06.467Z,0.80
2024-03-05T12:37:33.551Z,1.17
2024-03-05T12:40:00.540Z,1.23
2024-03-05T12:42:27.434Z,1.10
2024-03-05T12:45:09.567Z,0.80
2024-03-05T12:47:37.801Z,1.25
2024-03-05T12:50:13.965Z,1.15
2024-03-05T12:52:40.924Z,1.00
2024-03-05T12:55:08.922Z,1.10
2024-03-05T12:57:37.014Z,1.30
2024-03-05T13:00:07.945Z,1.25
2024-03-05T13:02:45.495Z,1.30
2024-03-05T13:05:20.101Z,1.27
2024-03-05T13:10:22.765Z,1.38
2024-03-05T13:12:59.040Z,1.52
2024-03-05T13:15:28.794Z,0.90
2024-03-05T13:17:55.952Z,1.20
2024-03-05T13:20:29.028Z,1.27
2024-03-05T13:22:55.976Z,1.38
2024-03-05T13:25:27.983Z,1.30
2024-03-05T13:27:55.427Z,1.05
2024-03-05T13:30:22.543Z,2.10
2024-03-05T13:32:51.248Z,1.38
2024-03-05T13:35:18.967Z,1.10
2024-03-05T13:37:48.116Z,1.15
2024-03-05T13:40:16.225Z,1.13
2024-03-05T13:42:43.065Z,1.02
2024-03-05T13:45:16.334Z,1.08
2024-03-05T13:47:44.279Z,1.52
2024-03-05T13:52:50.843Z,1.00
2024-03-05T13:55:21.120Z,1.25
2024-03-05T13:57:49.631Z,1.45
2024-03-05T14:00:18.025Z,1.30
2024-03-05T14:02:45.176Z,1.23
2024-03-05T14:05:13.644Z,1.17
2024-03-05T14:07:40.408Z,1.58
2024-03-05T14:10:15.289Z,1.30
2024-03-05T14:12:46.043Z,1.40
2024-03-05T14:15:16.325Z,1.02
2024-03-05T14:17:43.227Z,1.40
2024-03-05T14:20:12.458Z,1.35
2024-03-05T14:22:41.760Z,1.48
2024-03-05T14:25:11.767Z,1.85
2024-03-05T14:27:38.622Z,1.00
2024-03-05T14:30:09.099Z,1.27
2024-03-05T14:32:36.129Z,1.40
2024-03-05T14:35:06.566Z,1.70
2024-03-05T14:37:33.419Z,1.60
2024-03-05T14:40:01.184Z,1.60
2024-03-05T14:42:35.785Z,1.35
2024-03-05T14:45:06.416Z,1.63
2024-03-05T14:47:33.181Z,1.77
2024-03-05T14:50:00.132Z,1.50
2024-03-05T14:52:30.069Z,1.38
2024-03-05T14:55:00.943Z,1.50
2024-03-05T14:57:29.153Z,1.50
2024-03-05T15:00:02.040Z,1.45
2024-03-05T15:02:28.949Z,1.45
2024-03-05T15:04:55.943Z,1.20
2024-03-05T15:07:22.895Z,1.20
2024-03-05T15:09:49.871Z,1.23
2024-03-05T15:12:16.722Z,1.05
2024-03-05T15:14:53.005Z,1.27
2024-03-05T15:17:22.507Z,1.35
2024-03-05T15:19:49.478Z,1.38
2024-03-05T15:22:17.711Z,1.70
2024-03-05T15:24:44.440Z,1.08
2024-03-05T15:27:13.034Z,1.10
2024-03-05T15:29:48.747Z,1.63
2024-03-05T15:32:19.260Z,1.55
2024-03-05T15:34:46.069Z,1.73
2024-03-05T15:37:14.266Z,1.35
2024-03-05T15:39:41.026Z,1.75
2024-03-05T15:42:07.767Z,1.30
2024-03-05T15:44:34.581Z,1.40
2024-03-05T15:47:01.409Z,1.95
2024-03-05T15:49:28.252Z,1.60
2024-03-05T15:51:55.020Z,1.38
2024-03-05T15:54:21.825Z,1.63
2024-03-05T15:56:50.245Z,1.73
2024-03-05T15:59:17.062Z,1.70
2024-03-05T16:01:43.905Z,1.38
2024-03-05T16:06:46.046Z,1.50
2024-03-05T16:09:21.033Z,1.50
2024-03-05T16:11:48.589Z,3.17
2024-03-05T16:14:23.738Z,1.65
2024-03-05T16:16:50.544Z,2.05
2024-03-05T16:19:17.393Z,1.73
2024-03-05T16:21:44.177Z,1.80
2024-03-05T16:24:12.283Z,1.50
2024-03-05T16:26:39.206Z,1.58
2024-03-05T16:29:06.049Z,1.80
2024-03-05T16:31:32.929Z,2.30
2024-03-05T16:34:03.264Z,1.95
2024-03-05T16:36:30.156Z,1.75
2024-03-05T16:38:57.160Z,1.98
2024-03-05T16:41:27.217Z,1.92
2024-03-05T16:43:54.056Z,1.90
2024-03-05T16:46:20.773Z,1.92
2024-03-05T16:48:47.625Z,2.20
2024-03-05T16:51:17.600Z,1.70
2024-03-05T16:53:44.573Z,2.25
2024-03-05T16:56:13.125Z,1.77
2024-03-05T16:58:46.292Z,1.73
2024-03-05T17:03:48.490Z,2.00
2024-03-05T17:06:16.231Z,2.25
2024-03-05T17:08:49.238Z,2.53
2024-03-05T17:11:16.516Z,2.35
2024-03-05T17:13:43.854Z,2.50
2024-03-05T17:16:10.734Z,2.58
2024-03-05T17:18:37.557Z,2.72
2024-03-05T17:23:40.431Z,1.30
2024-03-05T17:26:14.306Z,1.20
2024-03-05T17:28:41.259Z,1.20
2024-03-05T17:31:12.205Z,2.17
2024-03-05T17:33:39.116Z,1.70
2024-03-05T17:38:41.653Z,1.50
2024-03-05T17:41:15.330Z,1.52
2024-03-05T17:43:42.230Z,1.48
2024-03-05T17:46:13.223Z,1.30
2024-03-05T17:53:56.168Z,1.13
2024-03-05T17:56:31.473Z,1.10
2024-03-05T17:58:58.381Z,1.00
2024-03-05T18:01:25.328Z,1.50
2024-03-05T18:06:27.892Z,1.50
2024-03-05T18:09:00.875Z,1.10
2024-03-05T18:11:29.544Z,1.20
2024-03-05T18:13:56.492Z,0.73
2024-03-05T18:16:23.254Z,0.93
2024-03-05T18:18:50.396Z,1.60
2024-03-05T18:21:17.171Z,1.00
2024-03-05T18:23:47.593Z,0.70
2024-03-05T18:26:14.792Z,1.42
2024-03-05T18:28:41.749Z,1.52
2024-03-05T18:33:44.282Z,0.70
2024-03-05T18:36:11.043Z,1.63
2024-03-05T18:38:37.993Z,1.27
2024-03-05T18:41:05.339Z,1.38
2024-03-05T18:43:32.315Z,1.83
2024-03-05T18:46:00.767Z,1.02
2024-03-05T18:48:27.974Z,1.13
2024-03-05T18:50:54.865Z,1.20
2024-03-05T18:53:32.709Z,1.30
2024-03-05T18:56:09.737Z,1.33
2024-03-05T18:58:36.616Z,1.42
2024-03-05T19:01:04.686Z,0.88
2024-03-05T19:03:31.485Z,1.33
2024-03-05T19:05:59.294Z,1.52
2024-03-05T19:08:26.266Z,0.95
2024-03-05T19:10:53.159Z,1.50
2024-03-05T19:13:22.720Z,1.38
2024-03-05T19:15:49.497Z,1.63
2024-03-05T19:18:16.372Z,1.38
2024-03-05T19:20:46.084Z,1.48
2024-03-05T19:23:13.045Z,1.23
2024-03-05T19:25:46.408Z,1.05
2024-03-05T19:28:15.816Z,0.95
2024-03-05T19:30:42.766Z,1.38
2024-03-05T19:33:11.805Z,1.20
2024-03-05T19:35:41.207Z,0.80
2024-03-05T19:38:11.478Z,1.25
2024-03-05T19:40:38.709Z,1.20
2024-03-05T19:43:08.565Z,1.48
2024-03-05T19:45:35.257Z,0.98
2024-03-05T19:48:02.133Z,1.13
2024-03-05T19:50:30.486Z,0.93
2024-03-05T19:52:57.679Z,1.30
2024-03-05T19:55:32.490Z,1.58
2024-03-05T19:57:59.288Z,0.63
2024-03-05T20:00:26.112Z,1.50
2024-03-05T20:02:53.397Z,0.80
2024-03-05T20:05:20.691Z,1.20
2024-03-05T20:08:08.880Z,1.20
2024-03-05T20:13:20.437Z,0.90
2024-03-05T20:15:56.269Z,1.48
2024-03-05T20:18:27.419Z,1.92
2024-03-05T20:20:58.418Z,1.50
2024-03-05T20:23:42.676Z,1.10
2024-03-05T20:26:26.276Z,1.30
2024-03-05T20:28:53.196Z,1.10
2024-03-05T20:31:20.104Z,1.10
2024-03-05T20:33:48.544Z,1.50
2024-03-05T20:36:16.397Z,1.50
2024-03-05T20:38:56.527Z,1.27
2024-03-05T20:41:33.505Z,1.10
2024-03-05T20:44:00.444Z,1.15
2024-03-05T20:46:27.297Z,1.60
2024-03-05T20:48:54.375Z,1.38
2024-03-05T20:51:24.533Z,1.73
2024-03-05T20:53:51.586Z,1.35
2024-03-05T20:56:31.953Z,0.82
2024-03-05T20:58:58.884Z,1.20
2024-03-05T21:01:25.831Z,1.00
2024-03-05T21:03:52.732Z,1.30
2024-03-05T21:06:23.851Z,1.10
2024-03-05T21:08:51.013Z,1.50
2024-03-05T21:11:20.926Z,1.33
2024-03-05T21:13:49.457Z,1.40
2024-03-05T21:16:16.365Z,1.33
2024-03-05T21:18:44.440Z,1.50
2024-03-05T21:21:11.303Z,1.00
2024-03-05T21:23:38.215Z,1.30
2024-03-05T21:26:27.060Z,1.55
2024-03-05T21:28:59.432Z,1.40
2024-03-05T21:31:30.788Z,1.40
2024-03-05T21:34:02.226Z,1.73
2024-03-05T21:36:35.509Z,1.73
2024-03-05T21:39:02.472Z,1.83
2024-03-05T21:41:30.420Z,1.92
2024-03-05T21:46:39.511Z,2.00
2024-03-05T21:49:06.913Z,1.38
2024-03-05T21:51:39.379Z,1.58
2024-03-05T21:54:06.260Z,1.90
2024-03-05T21:56:33.039Z,1.80
2024-03-05T21:58:59.969Z,1.80
2024-03-05T22:01:26.842Z,1.75
2024-03-05T22:03:53.704Z,1.73
2024-03-05T22:06:35.554Z,2.03
2024-03-05T22:11:39.513Z,2.13
2024-03-05T22:14:07.658Z,1.90
2024-03-05T22:16:34.520Z,1.90
2024-03-05T22:19:10.475Z,2.15
2024-03-05T22:21:45.806Z,2.00
2024-03-05T22:24:12.539Z,2.05
2024-03-05T22:26:41.285Z,2.13
2024-03-05T22:29:08.090Z,1.17
2024-03-05T22:31:35.039Z,2.00
2024-03-05T22:34:01.962Z,1.67
2024-03-05T22:36:29.634Z,5.20
2024-03-05T22:39:00.256Z,1.85
2024-03-05T22:41:29.009Z,2.33
2024-03-05T22:44:03.541Z,4.18
2024-03-05T22:46:30.453Z,2.20
2024-03-05T22:49:04.519Z,1.98
2024-03-05T22:51:45.991Z,1.90
2024-03-05T22:54:19.653Z,2.08
2024-03-05T22:57:00.378Z,1.20
2024-03-05T22:59:27.336Z,1.55
2024-03-05T23:01:54.190Z,1.80
2024-03-05T23:04:20.928Z,1.77
2024-03-05T23:06:48.582Z,1.75
2024-03-05T23:09:22.511Z,1.00
2024-03-05T23:11:54.874Z,2.20
2024-03-05T23:14:25.598Z,1.30
2024-03-05T23:16:52.489Z,1.98
2024-03-05T23:19:19.258Z,1.77
2024-03-05T23:21:54.554Z,1.50
2024-03-05T23:24:21.347Z,1.92
2024-03-05T23:26:48.225Z,1.10
2024-03-05T23:29:16.420Z,1.38
2024-03-05T23:31:49.560Z,0.70
2024-03-05T23:34:24.690Z,1.00
2024-03-05T23:36:51.623Z,1.05
2024-03-05T23:39:18.337Z,1.90
2024-03-05T23:41:47.602Z,1.00
2024-03-05T23:44:17.672Z,1.05
2024-03-05T23:46:45.803Z,1.55
2024-03-05T23:49:12.601Z,1.95
2024-03-05T23:51:47.786Z,1.88
2024-03-05T23:54:17.213Z,1.60
2024-03-05T23:56:45.586Z,1.42
2024-03-05T23:59:12.531Z,1.10
